sensor_id;sensor_type;location;lat;lon;timestamp;P1;durP1;ratioP1;P2;durP2;ratioP2
45338;SDS011;31071;51.478;5.710;2024-03-23T00:56:26;16.48;;;6.15;;
45338;SDS011;31071;51.478;5.710;2024-03-23T00:58:55;20.52;;;5.97;;
45338;SDS011;31071;51.478;5.710;2024-03-23T01:01:26;27.40;;;6.50;;
45338;SDS011;31071;51.478;5.710;2024-03-23T01:03:52;17.02;;;5.97;;
45338;SDS011;31071;51.478;5.710;2024-03-23T01:06:17;13.95;;;5.90;;
45338;SDS011;31071;51.478;5.710;2024-03-23T01:08:52;20.35;;;6.15;;
45338;SDS011;31071;51.478;5.710;2024-03-23T01:11:17;25.30;;;6.47;;
45338;SDS011;31071;51.478;5.710;2024-03-23T01:13:43;18.95;;;6.20;;
45338;SDS011;31071;51.478;5.710;2024-03-23T01:16:12;19.15;;;6.18;;
45338;SDS011;31071;51.478;5.710;2024-03-23T01:18:40;20.42;;;6.15;;
45338;SDS011;31071;51.478;5.710;2024-03-23T01:21:06;18.63;;;5.85;;
45338;SDS011;31071;51.478;5.710;2024-03-23T01:23:32;24.20;;;6.38;;
45338;SDS011;31071;51.478;5.710;2024-03-23T01:25:58;18.92;;;6.10;;
45338;SDS011;31071;51.478;5.710;2024-03-23T01:28:23;18.52;;;6.28;;
45338;SDS011;31071;51.478;5.710;2024-03-23T01:30:49;19.92;;;5.90;;
45338;SDS011;31071;51.478;5.710;2024-03-23T01:33:17;19.38;;;5.97;;
45338;SDS011;31071;51.478;5.710;2024-03-23T01:35:49;16.27;;;5.43;;
45338;SDS011;31071;51.478;5.710;2024-03-23T01:38:15;16.08;;;5.85;;
45338;SDS011;31071;51.478;5.710;2024-03-23T01:40:41;28.60;;;5.35;;
45338;SDS011;31071;51.478;5.710;2024-03-23T01:43:09;13.82;;;5.25;;
45338;SDS011;31071;51.478;5.710;2024-03-23T01:45:38;14.20;;;5.50;;
45338;SDS011;31071;51.478;5.710;2024-03-23T01:48:04;21.02;;;5.38;;
45338;SDS011;31071;51.478;5.710;2024-03-23T01:50:30;21.13;;;5.47;;
45338;SDS011;31071;51.478;5.710;2024-03-23T01:53:02;15.80;;;4.97;;
45338;SDS011;31071;51.478;5.710;2024-03-23T01:55:32;17.17;;;5.68;;
45338;SDS011;31071;51.478;5.710;2024-03-23T01:57:58;17.25;;;5.35;;
45338;SDS011;31071;51.478;5.710;2024-03-23T02:00:26;16.73;;;4.78;;
45338;SDS011;31071;51.478;5.710;2024-03-23T02:02:55;17.05;;;5.30;;
45338;SDS011;31071;51.478;5.710;2024-03-23T02:05:21;22.52;;;5.20;;
45338;SDS011;31071;51.478;5.710;2024-03-23T02:07:47;18.67;;;5.07;;
45338;SDS011;31071;51.478;5.710;2024-03-23T02:10:19;15.38;;;4.97;;
45338;SDS011;31071;51.478;5.710;2024-03-23T02:12:48;20.45;;;5.65;;
45338;SDS011;31071;51.478;5.710;2024-03-23T02:15:25;18.23;;;5.30;;
45338;SDS011;31071;51.478;5.710;2024-03-23T02:17:50;17.65;;;5.32;;
45338;SDS011;31071;51.478;5.710;2024-03-23T02:20:19;21.33;;;4.95;;
45338;SDS011;31071;51.478;5.710;2024-03-23T02:22:45;18.98;;;6.35;;
45338;SDS011;31071;51.478;5.710;2024-03-23T02:25:18;20.23;;;5.22;;
45338;SDS011;31071;51.478;5.710;2024-03-23T02:27:44;14.27;;;4.80;;
45338;SDS011;31071;51.478;5.710;2024-03-23T02:30:10;20.35;;;5.47;;
45338;SDS011;31071;51.478;5.710;2024-03-23T02:32:35;19.02;;;5.63;;
45338;SDS011;31071;51.478;5.710;2024-03-23T02:35:01;13.43;;;5.57;;
45338;SDS011;31071;51.478;5.710;2024-03-23T02:37:30;17.20;;;5.57;;
45338;SDS011;31071;51.478;5.710;2024-03-23T02:39:58;23.70;;;5.70;;
45338;SDS011;31071;51.478;5.710;2024-03-23T02:42:24;18.38;;;5.35;;
45338;SDS011;31071;51.478;5.710;2024-03-23T02:44:50;23.45;;;5.30;;
45338;SDS011;31071;51.478;5.710;2024-03-23T02:47:15;29.38;;;7.10;;
45338;SDS011;31071;51.478;5.710;2024-03-23T02:49:41;20.45;;;5.90;;
45338;SDS011;31071;51.478;5.710;2024-03-23T02:52:10;19.95;;;7.30;;
45338;SDS011;31071;51.478;5.710;2024-03-23T02:54:36;23.88;;;6.93;;
45338;SDS011;31071;51.478;5.710;2024-03-23T02:57:01;19.58;;;7.15;;
45338;SDS011;31071;51.478;5.710;2024-03-23T02:59:27;24.45;;;7.25;;
45338;SDS011;31071;51.478;5.710;2024-03-23T03:01:53;19.05;;;6.68;;
45338;SDS011;31071;51.478;5.710;2024-03-23T03:04:18;16.40;;;6.82;;
45338;SDS011;31071;51.478;5.710;2024-03-23T03:06:47;19.77;;;6.38;;
45338;SDS011;31071;51.478;5.710;2024-03-23T03:09:14;22.88;;;6.20;;
45338;SDS011;31071;51.478;5.710;2024-03-23T03:11:42;20.20;;;6.65;;
45338;SDS011;31071;51.478;5.710;2024-03-23T03:14:08;19.40;;;6.60;;
45338;SDS011;31071;51.478;5.710;2024-03-23T03:16:34;22.13;;;6.53;;
45338;SDS011;31071;51.478;5.710;2024-03-23T03:19:02;15.95;;;5.93;;
45338;SDS011;31071;51.478;5.710;2024-03-23T03:21:32;13.15;;;6.97;;
45338;SDS011;31071;51.478;5.710;2024-03-23T03:23:58;17.17;;;6.18;;
45338;SDS011;31071;51.478;5.710;2024-03-23T03:26:27;19.65;;;6.28;;
45338;SDS011;31071;51.478;5.710;2024-03-23T03:28:53;23.25;;;7.10;;
45338;SDS011;31071;51.478;5.710;2024-03-23T03:31:19;21.10;;;6.40;;
45338;SDS011;31071;51.478;5.710;2024-03-23T03:33:51;21.13;;;6.47;;
45338;SDS011;31071;51.478;5.710;2024-03-23T03:36:16;17.20;;;6.10;;
45338;SDS011;31071;51.478;5.710;2024-03-23T03:38:42;22.23;;;6.20;;
45338;SDS011;31071;51.478;5.710;2024-03-23T03:41:08;19.95;;;6.65;;
45338;SDS011;31071;51.478;5.710;2024-03-23T03:43:36;19.42;;;6.45;;
45338;SDS011;31071;51.478;5.710;2024-03-23T03:46:08;21.58;;;7.18;;
45338;SDS011;31071;51.478;5.710;2024-03-23T03:48:42;26.45;;;6.57;;
45338;SDS011;31071;51.478;5.710;2024-03-23T03:51:10;15.63;;;5.93;;
45338;SDS011;31071;51.478;5.710;2024-03-23T03:53:35;22.35;;;6.68;;
45338;SDS011;31071;51.478;5.710;2024-03-23T03:56:01;16.25;;;5.97;;
45338;SDS011;31071;51.478;5.710;2024-03-23T03:58:30;13.80;;;5.70;;
45338;SDS011;31071;51.478;5.710;2024-03-23T04:00:56;13.73;;;5.53;;
45338;SDS011;31071;51.478;5.710;2024-03-23T04:03:22;21.02;;;5.30;;
45338;SDS011;31071;51.478;5.710;2024-03-23T04:05:51;17.52;;;5.03;;
45338;SDS011;31071;51.478;5.710;2024-03-23T04:08:17;14.82;;;5.15;;
45338;SDS011;31071;51.478;5.710;2024-03-23T04:10:43;16.50;;;5.32;;
45338;SDS011;31071;51.478;5.710;2024-03-23T04:13:09;15.07;;;4.85;;
45338;SDS011;31071;51.478;5.710;2024-03-23T04:15:37;14.02;;;4.82;;
45338;SDS011;31071;51.478;5.710;2024-03-23T04:18:03;15.85;;;4.90;;
45338;SDS011;31071;51.478;5.710;2024-03-23T04:20:29;17.63;;;4.57;;
45338;SDS011;31071;51.478;5.710;2024-03-23T04:22:55;15.98;;;5.30;;
45338;SDS011;31071;51.478;5.710;2024-03-23T04:25:20;13.52;;;4.82;;
45338;SDS011;31071;51.478;5.710;2024-03-23T04:27:48;13.70;;;5.03;;
45338;SDS011;31071;51.478;5.710;2024-03-23T04:30:14;15.02;;;5.00;;
45338;SDS011;31071;51.478;5.710;2024-03-23T04:32:41;20.77;;;5.25;;
45338;SDS011;31071;51.478;5.710;2024-03-23T04:35:07;19.63;;;5.15;;
45338;SDS011;31071;51.478;5.710;2024-03-23T04:37:39;19.23;;;5.00;;
45338;SDS011;31071;51.478;5.710;2024-03-23T04:40:08;16.45;;;5.07;;
45338;SDS011;31071;51.478;5.710;2024-03-23T04:42:34;16.30;;;5.15;;
45338;SDS011;31071;51.478;5.710;2024-03-23T04:45:00;14.85;;;4.63;;
45338;SDS011;31071;51.478;5.710;2024-03-23T04:47:25;17.17;;;5.38;;
45338;SDS011;31071;51.478;5.710;2024-03-23T04:49:51;19.33;;;5.40;;
45338;SDS011;31071;51.478;5.710;2024-03-23T04:52:17;17.48;;;5.70;;
45338;SDS011;31071;51.478;5.710;2024-03-23T04:54:43;18.58;;;5.40;;
45338;SDS011;31071;51.478;5.710;2024-03-23T04:57:10;17.20;;;5.93;;
45338;SDS011;31071;51.478;5.710;2024-03-23T04:59:36;18.38;;;6.00;;
45338;SDS011;31071;51.478;5.710;2024-03-23T05:02:01;18.55;;;6.38;;
45338;SDS011;31071;51.478;5.710;2024-03-23T05:04:27;17.05;;;6.38;;
45338;SDS011;31071;51.478;5.710;2024-03-23T05:06:53;24.88;;;7.15;;
45338;SDS011;31071;51.478;5.710;2024-03-23T05:09:19;20.95;;;6.80;;
45338;SDS011;31071;51.478;5.710;2024-03-23T05:11:45;17.52;;;6.97;;
45338;SDS011;31071;51.478;5.710;2024-03-23T05:14:11;24.95;;;7.97;;
45338;SDS011;31071;51.478;5.710;2024-03-23T05:16:38;24.70;;;8.27;;
45338;SDS011;31071;51.478;5.710;2024-03-23T05:19:04;24.55;;;8.75;;
45338;SDS011;31071;51.478;5.710;2024-03-23T05:21:30;26.05;;;9.25;;
45338;SDS011;31071;51.478;5.710;2024-03-23T05:23:55;23.67;;;9.40;;
45338;SDS011;31071;51.478;5.710;2024-03-23T05:26:22;36.20;;;10.85;;
45338;SDS011;31071;51.478;5.710;2024-03-23T05:28:48;25.10;;;10.68;;
45338;SDS011;31071;51.478;5.710;2024-03-23T05:31:22;27.65;;;10.63;;
45338;SDS011;31071;51.478;5.710;2024-03-23T05:33:51;31.33;;;12.35;;
45338;SDS011;31071;51.478;5.710;2024-03-23T05:36:17;31.23;;;11.77;;
45338;SDS011;31071;51.478;5.710;2024-03-23T05:38:43;34.10;;;11.85;;
45338;SDS011;31071;51.478;5.710;2024-03-23T05:41:09;30.70;;;12.50;;
45338;SDS011;31071;51.478;5.710;2024-03-23T05:43:35;34.78;;;12.05;;
45338;SDS011;31071;51.478;5.710;2024-03-23T05:46:00;34.55;;;12.40;;
45338;SDS011;31071;51.478;5.710;2024-03-23T05:48:27;32.75;;;12.88;;
45338;SDS011;31071;51.478;5.710;2024-03-23T05:50:53;38.30;;;14.80;;
45338;SDS011;31071;51.478;5.710;2024-03-23T05:53:19;32.80;;;12.48;;
45338;SDS011;31071;51.478;5.710;2024-03-23T05:55:45;38.72;;;13.20;;
45338;SDS011;31071;51.478;5.710;2024-03-23T05:58:15;32.05;;;12.43;;
45338;SDS011;31071;51.478;5.710;2024-03-23T06:00:42;28.85;;;12.50;;
45338;SDS011;31071;51.478;5.710;2024-03-23T06:03:08;40.80;;;13.48;;
45338;SDS011;31071;51.478;5.710;2024-03-23T06:05:35;37.65;;;13.38;;
45338;SDS011;31071;51.478;5.710;2024-03-23T06:08:01;38.83;;;14.20;;
45338;SDS011;31071;51.478;5.710;2024-03-23T06:10:27;34.50;;;13.43;;
45338;SDS011;31071;51.478;5.710;2024-03-23T06:12:53;34.58;;;13.10;;
45338;SDS011;31071;51.478;5.710;2024-03-23T06:15:19;34.50;;;12.05;;
45338;SDS011;31071;51.478;5.710;2024-03-23T06:17:45;39.08;;;11.93;;
45338;SDS011;31071;51.478;5.710;2024-03-23T06:20:10;33.78;;;11.77;;
45338;SDS011;31071;51.478;5.710;2024-03-23T06:22:36;29.17;;;10.82;;
45338;SDS011;31071;51.478;5.710;2024-03-23T06:25:02;40.47;;;11.10;;
45338;SDS011;31071;51.478;5.710;2024-03-23T06:27:28;31.92;;;10.57;;
45338;SDS011;31071;51.478;5.710;2024-03-23T06:29:54;33.28;;;11.35;;
45338;SDS011;31071;51.478;5.710;2024-03-23T06:32:20;27.27;;;10.02;;
45338;SDS011;31071;51.478;5.710;2024-03-23T06:34:46;42.00;;;10.80;;
45338;SDS011;31071;51.478;5.710;2024-03-23T06:37:12;27.58;;;10.38;;
45338;SDS011;31071;51.478;5.710;2024-03-23T06:39:37;29.60;;;10.15;;
45338;SDS011;31071;51.478;5.710;2024-03-23T06:42:03;30.73;;;9.68;;
45338;SDS011;31071;51.478;5.710;2024-03-23T06:44:29;33.15;;;9.50;;
45338;SDS011;31071;51.478;5.710;2024-03-23T06:46:55;26.05;;;9.27;;
45338;SDS011;31071;51.478;5.710;2024-03-23T06:49:22;22.75;;;8.07;;
45338;SDS011;31071;51.478;5.710;2024-03-23T06:51:48;19.98;;;7.20;;
45338;SDS011;31071;51.478;5.710;2024-03-23T06:54:14;17.33;;;5.60;;
45338;SDS011;31071;51.478;5.710;2024-03-23T06:56:44;18.27;;;5.00;;
45338;SDS011;31071;51.478;5.710;2024-03-23T06:59:12;20.38;;;5.40;;
45338;SDS011;31071;51.478;5.710;2024-03-23T07:01:38;16.73;;;4.88;;
45338;SDS011;31071;51.478;5.710;2024-03-23T07:04:03;21.08;;;5.00;;
45338;SDS011;31071;51.478;5.710;2024-03-23T07:06:30;18.42;;;4.90;;
45338;SDS011;31071;51.478;5.710;2024-03-23T07:08:56;15.45;;;5.55;;
45338;SDS011;31071;51.478;5.710;2024-03-23T07:11:22;19.92;;;6.00;;
45338;SDS011;31071;51.478;5.710;2024-03-23T07:13:51;19.00;;;6.15;;
45338;SDS011;31071;51.478;5.710;2024-03-23T07:16:19;16.88;;;5.38;;
45338;SDS011;31071;51.478;5.710;2024-03-23T07:18:45;21.30;;;5.90;;
45338;SDS011;31071;51.478;5.710;2024-03-23T07:21:10;16.25;;;5.20;;
45338;SDS011;31071;51.478;5.710;2024-03-23T07:23:36;16.75;;;4.50;;
45338;SDS011;31071;51.478;5.710;2024-03-23T07:26:03;14.82;;;4.65;;
45338;SDS011;31071;51.478;5.710;2024-03-23T07:28:30;15.07;;;4.88;;
45338;SDS011;31071;51.478;5.710;2024-03-23T07:31:02;16.25;;;4.75;;
45338;SDS011;31071;51.478;5.710;2024-03-23T07:33:28;17.20;;;5.28;;
45338;SDS011;31071;51.478;5.710;2024-03-23T07:36:00;17.63;;;5.90;;
45338;SDS011;31071;51.478;5.710;2024-03-23T07:38:32;15.50;;;6.13;;
45338;SDS011;31071;51.478;5.710;2024-03-23T07:43:30;15.50;;;5.28;;
45338;SDS011;31071;51.478;5.710;2024-03-23T07:46:02;14.63;;;5.60;;
45338;SDS011;31071;51.478;5.710;2024-03-23T07:48:29;13.02;;;4.38;;
45338;SDS011;31071;51.478;5.710;2024-03-23T07:53:28;14.15;;;4.28;;
45338;SDS011;31071;51.478;5.710;2024-03-23T07:56:01;16.00;;;4.43;;
45338;SDS011;31071;51.478;5.710;2024-03-23T07:58:43;20.02;;;5.28;;
45338;SDS011;31071;51.478;5.710;2024-03-23T08:01:13;18.75;;;5.47;;
45338;SDS011;31071;51.478;5.710;2024-03-23T08:03:45;20.25;;;5.63;;
45338;SDS011;31071;51.478;5.710;2024-03-23T08:08:55;20.02;;;5.13;;
45338;SDS011;31071;51.478;5.710;2024-03-23T08:11:31;15.10;;;5.32;;
45338;SDS011;31071;51.478;5.710;2024-03-23T08:13:59;14.87;;;4.60;;
45338;SDS011;31071;51.478;5.710;2024-03-23T08:16:30;16.10;;;4.70;;
45338;SDS011;31071;51.478;5.710;2024-03-23T08:18:55;20.08;;;5.43;;
45338;SDS011;31071;51.478;5.710;2024-03-23T08:21:21;23.55;;;4.60;;
45338;SDS011;31071;51.478;5.710;2024-03-23T08:23:47;14.35;;;3.80;;
45338;SDS011;31071;51.478;5.710;2024-03-23T08:26:15;13.63;;;3.55;;
45338;SDS011;31071;51.478;5.710;2024-03-23T08:28:46;12.30;;;3.13;;
45338;SDS011;31071;51.478;5.710;2024-03-23T08:31:13;18.67;;;3.30;;
45338;SDS011;31071;51.478;5.710;2024-03-23T08:33:41;12.30;;;3.13;;
45338;SDS011;31071;51.478;5.710;2024-03-23T08:36:08;13.48;;;3.60;;
45338;SDS011;31071;51.478;5.710;2024-03-23T08:38:39;15.23;;;3.20;;
45338;SDS011;31071;51.478;5.710;2024-03-23T08:41:08;12.63;;;3.15;;
45338;SDS011;31071;51.478;5.710;2024-03-23T08:43:36;12.32;;;2.90;;
45338;SDS011;31071;51.478;5.710;2024-03-23T08:46:04;8.93;;;2.58;;
45338;SDS011;31071;51.478;5.710;2024-03-23T08:48:34;10.38;;;2.38;;
45338;SDS011;31071;51.478;5.710;2024-03-23T08:51:01;8.52;;;2.10;;
45338;SDS011;31071;51.478;5.710;2024-03-23T08:53:34;12.70;;;2.42;;
45338;SDS011;31071;51.478;5.710;2024-03-23T08:56:12;8.85;;;2.50;;
45338;SDS011;31071;51.478;5.710;2024-03-23T08:58:51;12.30;;;2.63;;
45338;SDS011;31071;51.478;5.710;2024-03-23T09:01:29;17.77;;;3.03;;
45338;SDS011;31071;51.478;5.710;2024-03-23T09:03:58;12.77;;;2.35;;
45338;SDS011;31071;51.478;5.710;2024-03-23T09:06:24;11.25;;;2.47;;
45338;SDS011;31071;51.478;5.710;2024-03-23T09:08:50;9.48;;;2.40;;
45338;SDS011;31071;51.478;5.710;2024-03-23T09:11:15;9.23;;;2.10;;
45338;SDS011;31071;51.478;5.710;2024-03-23T09:13:41;11.27;;;2.13;;
45338;SDS011;31071;51.478;5.710;2024-03-23T09:16:07;10.60;;;2.40;;
45338;SDS011;31071;51.478;5.710;2024-03-23T09:18:36;10.23;;;2.10;;
45338;SDS011;31071;51.478;5.710;2024-03-23T09:21:02;11.90;;;1.90;;
45338;SDS011;31071;51.478;5.710;2024-03-23T09:23:29;7.88;;;1.92;;
45338;SDS011;31071;51.478;5.710;2024-03-23T09:25:55;3.78;;;1.00;;
45338;SDS011;31071;51.478;5.710;2024-03-23T09:28:22;3.63;;;0.82;;
45338;SDS011;31071;51.478;5.710;2024-03-23T09:30:47;3.30;;;0.93;;
45338;SDS011;31071;51.478;5.710;2024-03-23T09:33:13;5.97;;;0.90;;
45338;SDS011;31071;51.478;5.710;2024-03-23T09:35:39;5.85;;;0.95;;
45338;SDS011;31071;51.478;5.710;2024-03-23T09:38:06;6.30;;;1.10;;
45338;SDS011;31071;51.478;5.710;2024-03-23T09:40:44;7.88;;;0.90;;
45338;SDS011;31071;51.478;5.710;2024-03-23T09:43:10;4.82;;;1.00;;
45338;SDS011;31071;51.478;5.710;2024-03-23T09:45:39;6.35;;;1.10;;
45338;SDS011;31071;51.478;5.710;2024-03-23T09:48:06;8.73;;;0.93;;
45338;SDS011;31071;51.478;5.710;2024-03-23T09:50:36;6.30;;;1.40;;
45338;SDS011;31071;51.478;5.710;2024-03-23T09:53:11;4.63;;;1.63;;
45338;SDS011;31071;51.478;5.710;2024-03-23T09:55:38;5.82;;;1.10;;
45338;SDS011;31071;51.478;5.710;2024-03-23T09:58:05;7.22;;;1.13;;
45338;SDS011;31071;51.478;5.710;2024-03-23T10:00:31;3.00;;;1.10;;
45338;SDS011;31071;51.478;5.710;2024-03-23T10:02:58;6.85;;;1.55;;
45338;SDS011;31071;51.478;5.710;2024-03-23T10:05:27;9.25;;;1.50;;
45338;SDS011;31071;51.478;5.710;2024-03-23T10:07:54;6.90;;;1.30;;
45338;SDS011;31071;51.478;5.710;2024-03-23T10:10:20;10.55;;;1.63;;
45338;SDS011;31071;51.478;5.710;2024-03-23T10:12:52;7.97;;;1.77;;
45338;SDS011;31071;51.478;5.710;2024-03-23T10:15:21;10.15;;;1.90;;
45338;SDS011;31071;51.478;5.710;2024-03-23T10:17:52;8.60;;;1.55;;
45338;SDS011;31071;51.478;5.710;2024-03-23T10:20:21;14.23;;;2.25;;
45338;SDS011;31071;51.478;5.710;2024-03-23T10:22:48;10.20;;;2.00;;
45338;SDS011;31071;51.478;5.710;2024-03-23T10:25:16;8.23;;;1.83;;
45338;SDS011;31071;51.478;5.710;2024-03-23T10:27:43;8.18;;;2.08;;
45338;SDS011;31071;51.478;5.710;2024-03-23T10:30:26;3.20;;;0.93;;
45338;SDS011;31071;51.478;5.710;2024-03-23T10:36:24;4.40;;;0.90;;
45338;SDS011;31071;51.478;5.710;2024-03-23T10:39:07;4.75;;;1.02;;
45338;SDS011;31071;51.478;5.710;2024-03-23T10:41:33;8.30;;;1.35;;
45338;SDS011;31071;51.478;5.710;2024-03-23T10:44:02;6.03;;;1.10;;
45338;SDS011;31071;51.478;5.710;2024-03-23T10:46:31;5.85;;;1.30;;
45338;SDS011;31071;51.478;5.710;2024-03-23T10:48:56;5.47;;;1.60;;
45338;SDS011;31071;51.478;5.710;2024-03-23T10:51:22;5.72;;;1.23;;
45338;SDS011;31071;51.478;5.710;2024-03-23T10:53:48;4.97;;;1.45;;
45338;SDS011;31071;51.478;5.710;2024-03-23T10:56:26;5.88;;;1.33;;
45338;SDS011;31071;51.478;5.710;2024-03-23T10:58:54;7.15;;;1.85;;
45338;SDS011;31071;51.478;5.710;2024-03-23T11:01:20;6.05;;;1.35;;
45338;SDS011;31071;51.478;5.710;2024-03-23T11:03:46;7.13;;;2.00;;
45338;SDS011;31071;51.478;5.710;2024-03-23T11:06:33;6.20;;;1.60;;
45338;SDS011;31071;51.478;5.710;2024-03-23T11:09:02;8.02;;;1.65;;
45338;SDS011;31071;51.478;5.710;2024-03-23T11:11:27;9.10;;;1.85;;
45338;SDS011;31071;51.478;5.710;2024-03-23T11:14:02;7.03;;;1.48;;
45338;SDS011;31071;51.478;5.710;2024-03-23T11:16:47;11.40;;;2.10;;
45338;SDS011;31071;51.478;5.710;2024-03-23T11:19:36;8.38;;;1.77;;
45338;SDS011;31071;51.478;5.710;2024-03-23T11:22:03;6.25;;;1.50;;
45338;SDS011;31071;51.478;5.710;2024-03-23T11:24:33;6.07;;;1.60;;
45338;SDS011;31071;51.478;5.710;2024-03-23T11:27:00;3.88;;;1.67;;
45338;SDS011;31071;51.478;5.710;2024-03-23T11:29:28;5.97;;;1.73;;
45338;SDS011;31071;51.478;5.710;2024-03-23T11:31:55;9.77;;;1.80;;
45338;SDS011;31071;51.478;5.710;2024-03-23T11:34:21;12.00;;;2.20;;
45338;SDS011;31071;51.478;5.710;2024-03-23T11:36:47;7.10;;;1.65;;
45338;SDS011;31071;51.478;5.710;2024-03-23T11:39:20;7.20;;;1.80;;
45338;SDS011;31071;51.478;5.710;2024-03-23T11:41:50;6.20;;;1.70;;
45338;SDS011;31071;51.478;5.710;2024-03-23T11:44:20;8.48;;;1.70;;
45338;SDS011;31071;51.478;5.710;2024-03-23T11:46:50;5.22;;;1.52;;
45338;SDS011;31071;51.478;5.710;2024-03-23T11:49:26;4.35;;;1.35;;
45338;SDS011;31071;51.478;5.710;2024-03-23T11:51:53;6.22;;;1.23;;
45338;SDS011;31071;51.478;5.710;2024-03-23T11:54:23;3.58;;;0.73;;
45338;SDS011;31071;51.478;5.710;2024-03-23T11:57:03;5.40;;;1.10;;
45338;SDS011;31071;51.478;5.710;2024-03-23T12:01:59;2.63;;;0.80;;
45338;SDS011;31071;51.478;5.710;2024-03-23T12:04:28;3.45;;;0.70;;
45338;SDS011;31071;51.478;5.710;2024-03-23T12:07:13;3.65;;;0.73;;
45338;SDS011;31071;51.478;5.710;2024-03-23T12:09:40;5.40;;;1.27;;
45338;SDS011;31071;51.478;5.710;2024-03-23T12:12:16;4.30;;;0.80;;
45338;SDS011;31071;51.478;5.710;2024-03-23T12:15:00;1.48;;;0.60;;
45338;SDS011;31071;51.478;5.710;2024-03-23T12:17:31;2.10;;;0.65;;
45338;SDS011;31071;51.478;5.710;2024-03-23T12:19:57;3.55;;;0.50;;
45338;SDS011;31071;51.478;5.710;2024-03-23T12:22:23;2.53;;;0.65;;
45338;SDS011;31071;51.478;5.710;2024-03-23T12:24:50;5.07;;;0.70;;
45338;SDS011;31071;51.478;5.710;2024-03-23T12:27:16;3.97;;;0.82;;
45338;SDS011;31071;51.478;5.710;2024-03-23T12:29:41;4.28;;;0.90;;
45338;SDS011;31071;51.478;5.710;2024-03-23T12:32:10;5.57;;;0.90;;
45338;SDS011;31071;51.478;5.710;2024-03-23T12:34:36;6.65;;;0.77;;
45338;SDS011;31071;51.478;5.710;2024-03-23T12:37:03;2.60;;;0.80;;
45338;SDS011;31071;51.478;5.710;2024-03-23T12:39:28;4.60;;;0.93;;
45338;SDS011;31071;51.478;5.710;2024-03-23T12:41:54;3.28;;;0.90;;
45338;SDS011;31071;51.478;5.710;2024-03-23T12:44:20;3.53;;;0.88;;
45338;SDS011;31071;51.478;5.710;2024-03-23T12:46:45;2.85;;;0.70;;
45338;SDS011;31071;51.478;5.710;2024-03-23T12:49:11;3.88;;;1.23;;
45338;SDS011;31071;51.478;5.710;2024-03-23T12:51:38;3.20;;;0.98;;
45338;SDS011;31071;51.478;5.710;2024-03-23T12:54:04;6.50;;;1.00;;
45338;SDS011;31071;51.478;5.710;2024-03-23T12:56:33;3.85;;;1.20;;
45338;SDS011;31071;51.478;5.710;2024-03-23T12:58:58;3.75;;;1.10;;
45338;SDS011;31071;51.478;5.710;2024-03-23T13:01:24;4.70;;;1.15;;
45338;SDS011;31071;51.478;5.710;2024-03-23T13:03:50;5.90;;;1.00;;
45338;SDS011;31071;51.478;5.710;2024-03-23T13:06:16;4.88;;;0.80;;
45338;SDS011;31071;51.478;5.710;2024-03-23T13:12:08;4.75;;;0.80;;
45338;SDS011;31071;51.478;5.710;2024-03-23T13:14:37;3.50;;;0.60;;
45338;SDS011;31071;51.478;5.710;2024-03-23T13:17:07;2.53;;;0.80;;
45338;SDS011;31071;51.478;5.710;2024-03-23T13:19:36;2.97;;;0.68;;
45338;SDS011;31071;51.478;5.710;2024-03-23T13:22:09;2.00;;;0.57;;
45338;SDS011;31071;51.478;5.710;2024-03-23T13:24:38;2.35;;;0.50;;
45338;SDS011;31071;51.478;5.710;2024-03-23T13:27:04;3.65;;;0.90;;
45338;SDS011;31071;51.478;5.710;2024-03-23T13:29:32;3.35;;;0.80;;
45338;SDS011;31071;51.478;5.710;2024-03-23T13:31:59;3.28;;;0.80;;
45338;SDS011;31071;51.478;5.710;2024-03-23T13:34:25;7.88;;;1.20;;
45338;SDS011;31071;51.478;5.710;2024-03-23T13:36:54;3.58;;;0.88;;
45338;SDS011;31071;51.478;5.710;2024-03-23T13:39:20;3.70;;;1.08;;
45338;SDS011;31071;51.478;5.710;2024-03-23T13:41:57;2.92;;;0.95;;
45338;SDS011;31071;51.478;5.710;2024-03-23T13:44:23;6.22;;;1.10;;
45338;SDS011;31071;51.478;5.710;2024-03-23T13:46:51;7.45;;;1.05;;
45338;SDS011;31071;51.478;5.710;2024-03-23T13:49:27;5.32;;;1.20;;
45338;SDS011;31071;51.478;5.710;2024-03-23T13:51:57;3.88;;;0.93;;
45338;SDS011;31071;51.478;5.710;2024-03-23T13:54:29;4.57;;;0.90;;
45338;SDS011;31071;51.478;5.710;2024-03-23T13:57:01;5.43;;;1.38;;
45338;SDS011;31071;51.478;5.710;2024-03-23T13:59:29;5.93;;;1.50;;
45338;SDS011;31071;51.478;5.710;2024-03-23T14:01:55;3.65;;;0.93;;
45338;SDS011;31071;51.478;5.710;2024-03-23T14:04:21;3.78;;;0.73;;
45338;SDS011;31071;51.478;5.710;2024-03-23T14:06:48;5.05;;;1.10;;
45338;SDS011;31071;51.478;5.710;2024-03-23T14:09:13;8.18;;;0.77;;
45338;SDS011;31071;51.478;5.710;2024-03-23T14:11:40;2.53;;;0.88;;
45338;SDS011;31071;51.478;5.710;2024-03-23T14:14:08;5.07;;;0.90;;
45338;SDS011;31071;51.478;5.710;2024-03-23T14:16:34;6.57;;;1.33;;
45338;SDS011;31071;51.478;5.710;2024-03-23T14:19:00;4.00;;;1.30;;
45338;SDS011;31071;51.478;5.710;2024-03-23T14:21:26;3.45;;;0.93;;
45338;SDS011;31071;51.478;5.710;2024-03-23T14:23:52;6.32;;;1.20;;
45338;SDS011;31071;51.478;5.710;2024-03-23T14:26:22;3.42;;;1.00;;
45338;SDS011;31071;51.478;5.710;2024-03-23T14:28:53;7.18;;;1.40;;
45338;SDS011;31071;51.478;5.710;2024-03-23T14:31:22;7.40;;;1.00;;
45338;SDS011;31071;51.478;5.710;2024-03-23T14:33:53;6.15;;;1.10;;
45338;SDS011;31071;51.478;5.710;2024-03-23T14:36:26;6.03;;;1.45;;
45338;SDS011;31071;51.478;5.710;2024-03-23T14:38:54;5.60;;;1.45;;
45338;SDS011;31071;51.478;5.710;2024-03-23T14:41:23;7.07;;;1.88;;
45338;SDS011;31071;51.478;5.710;2024-03-23T14:43:56;6.20;;;1.48;;
45338;SDS011;31071;51.478;5.710;2024-03-23T14:46:22;8.45;;;1.80;;
45338;SDS011;31071;51.478;5.710;2024-03-23T14:48:48;8.18;;;1.67;;
45338;SDS011;31071;51.478;5.710;2024-03-23T14:51:14;7.43;;;1.65;;
45338;SDS011;31071;51.478;5.710;2024-03-23T14:53:45;9.63;;;1.98;;
45338;SDS011;31071;51.478;5.710;2024-03-23T14:56:13;5.72;;;1.45;;
45338;SDS011;31071;51.478;5.710;2024-03-23T14:58:40;4.90;;;1.30;;
45338;SDS011;31071;51.478;5.710;2024-03-23T15:01:07;7.38;;;1.95;;
45338;SDS011;31071;51.478;5.710;2024-03-23T15:03:37;4.72;;;1.33;;
45338;SDS011;31071;51.478;5.710;2024-03-23T15:06:09;7.60;;;1.67;;
45338;SDS011;31071;51.478;5.710;2024-03-23T15:08:35;5.25;;;1.38;;
45338;SDS011;31071;51.478;5.710;2024-03-23T15:11:03;4.97;;;1.45;;
45338;SDS011;31071;51.478;5.710;2024-03-23T15:13:32;5.03;;;1.63;;
45338;SDS011;31071;51.478;5.710;2024-03-23T15:16:04;4.80;;;1.20;;
45338;SDS011;31071;51.478;5.710;2024-03-23T15:18:36;6.75;;;1.48;;
45338;SDS011;31071;51.478;5.710;2024-03-23T15:21:08;5.28;;;1.30;;
45338;SDS011;31071;51.478;5.710;2024-03-23T15:23:46;3.17;;;1.25;;
45338;SDS011;31071;51.478;5.710;2024-03-23T15:26:11;4.78;;;1.45;;
45338;SDS011;31071;51.478;5.710;2024-03-23T15:28:37;5.40;;;1.35;;
45338;SDS011;31071;51.478;5.710;2024-03-23T15:31:08;6.07;;;1.20;;
45338;SDS011;31071;51.478;5.710;2024-03-23T15:33:34;5.90;;;1.13;;
45338;SDS011;31071;51.478;5.710;2024-03-23T15:36:04;5.65;;;0.88;;
45338;SDS011;31071;51.478;5.710;2024-03-23T15:38:36;7.13;;;1.10;;
45338;SDS011;31071;51.478;5.710;2024-03-23T15:41:05;3.63;;;0.93;;
45338;SDS011;31071;51.478;5.710;2024-03-23T15:43:30;7.38;;;1.00;;
45338;SDS011;31071;51.478;5.710;2024-03-23T15:45:57;6.65;;;1.20;;
45338;SDS011;31071;51.478;5.710;2024-03-23T15:48:29;6.28;;;0.88;;
45338;SDS011;31071;51.478;5.710;2024-03-23T15:51:00;3.63;;;0.80;;
45338;SDS011;31071;51.478;5.710;2024-03-23T15:53:29;3.50;;;0.70;;
45338;SDS011;31071;51.478;5.710;2024-03-23T15:55:55;3.47;;;0.82;;